sensor_id;sensor_type;location;lat;lon;timestamp;pressure;altitude;pressure_sealevel;temperature;humidity
44349;BME280;30068;50.986;4.564;2022-12-29T00:02:16;100199.22;;;15.57;70.22
44349;BME280;30068;50.986;4.564;2022-12-29T00:04:42;100200.06;;;15.50;70.82
44349;BME280;30068;50.986;4.564;2022-12-29T00:07:07;100193.03;;;15.49;70.74
44349;BME280;30068;50.986;4.564;2022-12-29T00:09:33;100190.53;;;15.55;70.39
44349;BME280;30068;50.986;4.564;2022-12-29T00:11:59;100192.38;;;15.47;70.79
44349;BME280;30068;50.986;4.564;2022-12-29T00:14:25;100195.38;;;15.52;70.68
44349;BME280;30068;50.986;4.564;2022-12-29T00:17:09;100191.13;;;15.65;69.84
44349;BME280;30068;50.986;4.564;2022-12-29T00:19:34;100184.38;;;15.69;70.04
44349;BME280;30068;50.986;4.564;2022-12-29T00:22:18;100193.63;;;15.75;69.49
44349;BME280;30068;50.986;4.564;2022-12-29T00:25:03;100181.91;;;15.68;69.63
44349;BME280;30068;50.986;4.564;2022-12-29T00:27:47;100176.00;;;15.64;70.07
44349;BME280;30068;50.986;4.564;2022-12-29T00:30:31;100182.91;;;15.67;70.38
44349;BME280;30068;50.986;4.564;2022-12-29T00:33:20;100188.28;;;15.67;70.24
44349;BME280;30068;50.986;4.564;2022-12-29T00:36:13;100172.16;;;15.67;70.17
44349;BME280;30068;50.986;4.564;2022-12-29T00:38:43;100172.16;;;15.67;70.05
44349;BME280;30068;50.986;4.564;2022-12-29T00:41:29;100178.00;;;15.70;69.89
44349;BME280;30068;50.986;4.564;2022-12-29T00:44:13;100181.50;;;15.79;69.29
44349;BME280;30068;50.986;4.564;2022-12-29T00:46:40;100170.88;;;15.86;68.98
44349;BME280;30068;50.986;4.564;2022-12-29T00:49:07;100149.72;;;15.83;69.04
44349;BME280;30068;50.986;4.564;2022-12-29T00:51:54;100159.25;;;15.85;68.99
44349;BME280;30068;50.986;4.564;2022-12-29T00:54:20;100144.81;;;15.86;68.62
44349;BME280;30068;50.986;4.564;2022-12-29T00:56:47;100155.72;;;15.85;68.72
44349;BME280;30068;50.986;4.564;2022-12-29T00:59:12;100157.25;;;15.87;69.05
44349;BME280;30068;50.986;4.564;2022-12-29T01:01:38;100153.03;;;15.85;68.88
44349;BME280;30068;50.986;4.564;2022-12-29T01:04:05;100149.34;;;15.86;68.51
44349;BME280;30068;50.986;4.564;2022-12-29T01:06:31;100152.56;;;15.81;68.56
44349;BME280;30068;50.986;4.564;2022-12-29T01:08:57;100154.06;;;15.84;68.59
44349;BME280;30068;50.986;4.564;2022-12-29T01:11:41;100167.63;;;15.90;68.52
44349;BME280;30068;50.986;4.564;2022-12-29T01:14:07;100153.84;;;15.93;67.99
44349;BME280;30068;50.986;4.564;2022-12-29T01:16:32;100182.25;;;15.96;68.10
44349;BME280;30068;50.986;4.564;2022-12-29T01:18:58;100168.44;;;15.99;68.17
44349;BME280;30068;50.986;4.564;2022-12-29T01:21:23;100169.94;;;16.01;68.24
44349;BME280;30068;50.986;4.564;2022-12-29T01:23:49;100164.56;;;16.01;68.27
44349;BME280;30068;50.986;4.564;2022-12-29T01:26:16;100150.09;;;16.02;68.25
44349;BME280;30068;50.986;4.564;2022-12-29T01:28:42;100163.16;;;16.05;68.30
44349;BME280;30068;50.986;4.564;2022-12-29T01:31:08;100162.16;;;16.06;68.16
44349;BME280;30068;50.986;4.564;2022-12-29T01:33:34;100162.53;;;16.03;68.44
44349;BME280;30068;50.986;4.564;2022-12-29T01:36:07;100162.53;;;16.03;68.21
44349;BME280;30068;50.986;4.564;2022-12-29T01:38:35;100160.00;;;16.02;68.20
44349;BME280;30068;50.986;4.564;2022-12-29T01:41:00;100161.19;;;15.99;68.12
44349;BME280;30068;50.986;4.564;2022-12-29T01:43:49;100163.72;;;16.01;68.25
44349;BME280;30068;50.986;4.564;2022-12-29T01:46:29;100159.88;;;15.95;68.38
44349;BME280;30068;50.986;4.564;2022-12-29T01:49:11;100163.03;;;15.99;68.43
44349;BME280;30068;50.986;4.564;2022-12-29T01:51:42;100184.44;;;15.92;68.25
44349;BME280;30068;50.986;4.564;2022-12-29T01:54:13;100165.56;;;16.00;68.48
44349;BME280;30068;50.986;4.564;2022-12-29T01:56:41;100169.94;;;16.01;68.45
44349;BME280;30068;50.986;4.564;2022-12-29T01:59:11;100166.69;;;16.06;68.03
44349;BME280;30068;50.986;4.564;2022-12-29T02:01:37;100156.13;;;16.04;68.19
44349;BME280;30068;50.986;4.564;2022-12-29T02:04:03;100158.81;;;16.04;68.23
44349;BME280;30068;50.986;4.564;2022-12-29T02:06:32;100170.41;;;16.05;68.19
44349;BME280;30068;50.986;4.564;2022-12-29T02:08:58;100174.22;;;16.10;68.13
44349;BME280;30068;50.986;4.564;2022-12-29T02:11:25;100155.41;;;16.10;68.22
44349;BME280;30068;50.986;4.564;2022-12-29T02:13:52;100156.06;;;16.12;68.16
44349;BME280;30068;50.986;4.564;2022-12-29T02:17:00;100160.59;;;16.12;68.24
44349;BME280;30068;50.986;4.564;2022-12-29T02:27:54;100161.94;;;16.16;67.62
44349;BME280;30068;50.986;4.564;2022-12-29T02:30:40;100143.63;;;16.11;67.86
44349;BME280;30068;50.986;4.564;2022-12-29T02:36:05;100151.19;;;16.16;68.11
44349;BME280;30068;50.986;4.564;2022-12-29T02:41:34;100146.63;;;16.16;67.97
44349;BME280;30068;50.986;4.564;2022-12-29T02:44:27;100147.28;;;16.18;68.18
44349;BME280;30068;50.986;4.564;2022-12-29T02:52:07;100123.53;;;16.22;67.82
44349;BME280;30068;50.986;4.564;2022-12-29T02:54:35;100130.06;;;16.28;67.97
44349;BME280;30068;50.986;4.564;2022-12-29T02:59:48;100117.31;;;16.22;67.98
44349;BME280;30068;50.986;4.564;2022-12-29T03:08:45;100118.94;;;16.31;67.99
44349;BME280;30068;50.986;4.564;2022-12-29T03:11:13;100129.03;;;16.29;68.23
44349;BME280;30068;50.986;4.564;2022-12-29T03:14:22;100135.59;;;16.26;67.96
44349;BME280;30068;50.986;4.564;2022-12-29T03:17:35;100124.00;;;16.26;67.85
44349;BME280;30068;50.986;4.564;2022-12-29T03:20:06;100136.44;;;16.27;67.41
44349;BME280;30068;50.986;4.564;2022-12-29T03:22:37;100125.22;;;16.23;67.63
44349;BME280;30068;50.986;4.564;2022-12-29T03:25:10;100122.88;;;16.20;67.62
44349;BME280;30068;50.986;4.564;2022-12-29T03:27:40;100114.97;;;16.18;67.57
44349;BME280;30068;50.986;4.564;2022-12-29T03:30:07;100119.72;;;16.16;67.80
44349;BME280;30068;50.986;4.564;2022-12-29T03:32:54;100136.03;;;16.15;67.88
44349;BME280;30068;50.986;4.564;2022-12-29T03:35:22;100130.38;;;16.10;68.10
44349;BME280;30068;50.986;4.564;2022-12-29T03:38:11;100141.47;;;16.07;68.15
44349;BME280;30068;50.986;4.564;2022-12-29T03:40:42;100128.19;;;16.05;68.04
44349;BME280;30068;50.986;4.564;2022-12-29T03:43:09;100138.94;;;16.05;67.92
44349;BME280;30068;50.986;4.564;2022-12-29T03:45:35;100144.84;;;16.09;67.88
44349;BME280;30068;50.986;4.564;2022-12-29T03:48:00;100150.72;;;16.04;68.21
44349;BME280;30068;50.986;4.564;2022-12-29T03:50:25;100161.88;;;16.01;68.30
44349;BME280;30068;50.986;4.564;2022-12-29T03:52:51;100167.06;;;16.03;68.01
44349;BME280;30068;50.986;4.564;2022-12-29T03:55:16;100157.84;;;15.97;68.26
44349;BME280;30068;50.986;4.564;2022-12-29T03:57:41;100156.19;;;15.96;67.82
44349;BME280;30068;50.986;4.564;2022-12-29T04:00:07;100164.72;;;16.00;68.25
44349;BME280;30068;50.986;4.564;2022-12-29T04:02:33;100148.28;;;15.95;68.09
44349;BME280;30068;50.986;4.564;2022-12-29T04:04:58;100162.38;;;15.97;68.58
44349;BME280;30068;50.986;4.564;2022-12-29T04:07:23;100161.56;;;15.96;68.27
44349;BME280;30068;50.986;4.564;2022-12-29T04:09:49;100168.97;;;15.94;68.40
44349;BME280;30068;50.986;4.564;2022-12-29T04:12:14;100164.78;;;15.92;68.77
44349;BME280;30068;50.986;4.564;2022-12-29T04:14:40;100153.66;;;15.95;68.11
44349;BME280;30068;50.986;4.564;2022-12-29T04:17:05;100166.31;;;15.86;68.47
44349;BME280;30068;50.986;4.564;2022-12-29T04:19:30;100173.84;;;15.91;68.54
44349;BME280;30068;50.986;4.564;2022-12-29T04:21:56;100179.09;;;15.84;68.81
44349;BME280;30068;50.986;4.564;2022-12-29T04:24:21;100169.19;;;15.85;68.38
44349;BME280;30068;50.986;4.564;2022-12-29T04:26:46;100175.41;;;15.85;68.20
44349;BME280;30068;50.986;4.564;2022-12-29T04:29:11;100172.03;;;15.83;68.26
44349;BME280;30068;50.986;4.564;2022-12-29T04:31:37;100169.34;;;15.83;68.39
44349;BME280;30068;50.986;4.564;2022-12-29T04:34:02;100188.00;;;15.85;68.47
44349;BME280;30068;50.986;4.564;2022-12-29T04:36:27;100174.94;;;15.82;68.22
44349;BME280;30068;50.986;4.564;2022-12-29T04:38:53;100184.00;;;15.80;68.40
44349;BME280;30068;50.986;4.564;2022-12-29T04:41:18;100181.16;;;15.82;68.26
44349;BME280;30068;50.986;4.564;2022-12-29T04:43:43;100190.56;;;15.78;68.18
44349;BME280;30068;50.986;4.564;2022-12-29T04:46:09;100191.78;;;15.75;68.31
44349;BME280;30068;50.986;4.564;2022-12-29T04:48:34;100194.59;;;15.82;68.27
44349;BME280;30068;50.986;4.564;2022-12-29T04:50:59;100200.00;;;15.74;68.62
44349;BME280;30068;50.986;4.564;2022-12-29T04:53:25;100213.78;;;15.79;68.41
44349;BME280;30068;50.986;4.564;2022-12-29T04:55:52;100196.31;;;15.75;67.87
44349;BME280;30068;50.986;4.564;2022-12-29T04:58:18;100206.06;;;15.76;68.05
44349;BME280;30068;50.986;4.564;2022-12-29T05:00:44;100212.47;;;15.75;68.04
44349;BME280;30068;50.986;4.564;2022-12-29T05:03:09;100208.41;;;15.71;68.21
44349;BME280;30068;50.986;4.564;2022-12-29T05:05:34;100212.13;;;15.70;68.50
44349;BME280;30068;50.986;4.564;2022-12-29T05:07:59;100207.78;;;15.69;68.60
44349;BME280;30068;50.986;4.564;2022-12-29T05:10:25;100205.09;;;15.69;68.06
44349;BME280;30068;50.986;4.564;2022-12-29T05:12:50;100207.41;;;15.72;67.98
44349;BME280;30068;50.986;4.564;2022-12-29T05:15:16;100200.22;;;15.64;68.21
44349;BME280;30068;50.986;4.564;2022-12-29T05:17:41;100195.19;;;15.61;68.43
44349;BME280;30068;50.986;4.564;2022-12-29T05:20:07;100199.72;;;15.69;67.83
44349;BME280;30068;50.986;4.564;2022-12-29T05:22:33;100204.28;;;15.60;68.33
44349;BME280;30068;50.986;4.564;2022-12-29T05:24:58;100199.38;;;15.64;68.02
44349;BME280;30068;50.986;4.564;2022-12-29T05:27:23;100203.44;;;15.60;68.59
44349;BME280;30068;50.986;4.564;2022-12-29T05:29:49;100203.59;;;15.58;68.23
44349;BME280;30068;50.986;4.564;2022-12-29T05:32:14;100204.63;;;15.57;68.22
44349;BME280;30068;50.986;4.564;2022-12-29T05:34:40;100200.91;;;15.58;68.21
44349;BME280;30068;50.986;4.564;2022-12-29T05:37:05;100199.75;;;15.53;68.39
44349;BME280;30068;50.986;4.564;2022-12-29T05:39:30;100197.88;;;15.61;68.11
44349;BME280;30068;50.986;4.564;2022-12-29T05:41:55;100192.38;;;15.55;68.02
44349;BME280;30068;50.986;4.564;2022-12-29T05:44:21;100200.59;;;15.53;68.30
44349;BME280;30068;50.986;4.564;2022-12-29T05:46:46;100195.53;;;15.50;68.18
44349;BME280;30068;50.986;4.564;2022-12-29T05:49:12;100199.38;;;15.64;67.80
44349;BME280;30068;50.986;4.564;2022-12-29T05:51:37;100216.75;;;15.53;68.05
44349;BME280;30068;50.986;4.564;2022-12-29T05:54:02;100204.13;;;15.54;68.13
44349;BME280;30068;50.986;4.564;2022-12-29T05:56:28;100218.25;;;15.56;67.94
44349;BME280;30068;50.986;4.564;2022-12-29T05:58:53;100217.59;;;15.54;68.07
44349;BME280;30068;50.986;4.564;2022-12-29T06:01:18;100239.78;;;15.56;67.80
44349;BME280;30068;50.986;4.564;2022-12-29T06:03:44;100233.53;;;15.55;67.96
44349;BME280;30068;50.986;4.564;2022-12-29T06:06:09;100232.72;;;15.55;67.90
44349;BME280;30068;50.986;4.564;2022-12-29T06:08:35;100236.69;;;15.51;67.91
44349;BME280;30068;50.986;4.564;2022-12-29T06:11:00;100242.09;;;15.51;67.98
44349;BME280;30068;50.986;4.564;2022-12-29T06:13:25;100245.59;;;15.51;67.44
44349;BME280;30068;50.986;4.564;2022-12-29T06:15:52;100249.66;;;15.47;67.68
44349;BME280;30068;50.986;4.564;2022-12-29T06:18:17;100247.16;;;15.54;67.21
44349;BME280;30068;50.986;4.564;2022-12-29T06:20:43;100240.09;;;15.53;67.57
44349;BME280;30068;50.986;4.564;2022-12-29T06:23:08;100244.63;;;15.44;67.45
44349;BME280;30068;50.986;4.564;2022-12-29T06:25:34;100246.47;;;15.43;67.49
44349;BME280;30068;50.986;4.564;2022-12-29T06:28:01;100260.41;;;15.47;67.74
44349;BME280;30068;50.986;4.564;2022-12-29T06:30:26;100265.28;;;15.43;67.67
44349;BME280;30068;50.986;4.564;2022-12-29T06:32:52;100260.59;;;15.46;67.69
44349;BME280;30068;50.986;4.564;2022-12-29T06:35:18;100270.88;;;15.42;67.55
44349;BME280;30068;50.986;4.564;2022-12-29T06:37:43;100273.34;;;15.43;67.47
44349;BME280;30068;50.986;4.564;2022-12-29T06:40:09;100273.03;;;15.38;67.45
44349;BME280;30068;50.986;4.564;2022-12-29T06:42:35;100281.78;;;15.40;67.37
44349;BME280;30068;50.986;4.564;2022-12-29T06:45:01;100288.16;;;15.39;67.01
44349;BME280;30068;50.986;4.564;2022-12-29T06:47:26;100286.47;;;15.38;67.19
44349;BME280;30068;50.986;4.564;2022-12-29T06:49:52;100277.25;;;15.33;67.39
44349;BME280;30068;50.986;4.564;2022-12-29T06:52:17;100291.84;;;15.38;67.10
44349;BME280;30068;50.986;4.564;2022-12-29T06:54:43;100284.78;;;15.37;67.38
44349;BME280;30068;50.986;4.564;2022-12-29T06:57:08;100291.19;;;15.36;67.63
44349;BME280;30068;50.986;4.564;2022-12-29T06:59:33;100290.00;;;15.39;66.81
44349;BME280;30068;50.986;4.564;2022-12-29T07:01:59;100286.00;;;15.35;67.33
44349;BME280;30068;50.986;4.564;2022-12-29T07:04:24;100298.59;;;15.34;67.16
44349;BME280;30068;50.986;4.564;2022-12-29T07:06:50;100297.91;;;15.32;67.46
44349;BME280;30068;50.986;4.564;2022-12-29T07:09:15;100304.63;;;15.36;67.27
44349;BME280;30068;50.986;4.564;2022-12-29T07:11:40;100297.06;;;15.32;67.76
44349;BME280;30068;50.986;4.564;2022-12-29T07:14:05;100307.50;;;15.35;67.27
44349;BME280;30068;50.986;4.564;2022-12-29T07:16:31;100310.00;;;15.45;66.37
44349;BME280;30068;50.986;4.564;2022-12-29T07:18:57;100313.19;;;15.32;66.65
44349;BME280;30068;50.986;4.564;2022-12-29T07:21:24;100315.03;;;15.39;66.68
44349;BME280;30068;50.986;4.564;2022-12-29T07:23:49;100305.31;;;15.30;66.63
44349;BME280;30068;50.986;4.564;2022-12-29T07:26:15;100304.81;;;15.35;66.64
44349;BME280;30068;50.986;4.564;2022-12-29T07:28:42;100318.41;;;15.25;67.46
44349;BME280;30068;50.986;4.564;2022-12-29T07:31:17;100321.94;;;15.26;66.75
44349;BME280;30068;50.986;4.564;2022-12-29T07:33:43;100314.38;;;15.29;66.43
44349;BME280;30068;50.986;4.564;2022-12-29T07:36:10;100314.38;;;15.29;66.92
44349;BME280;30068;50.986;4.564;2022-12-29T07:38:35;100308.81;;;15.39;66.10
44349;BME280;30068;50.986;4.564;2022-12-29T07:41:01;100319.41;;;15.32;66.32
44349;BME280;30068;50.986;4.564;2022-12-29T07:43:26;100317.06;;;15.29;66.71
44349;BME280;30068;50.986;4.564;2022-12-29T07:45:52;100316.06;;;15.30;66.36
44349;BME280;30068;50.986;4.564;2022-12-29T07:48:17;100301.78;;;15.22;66.07
44349;BME280;30068;50.986;4.564;2022-12-29T07:50:43;100320.41;;;15.23;66.83
44349;BME280;30068;50.986;4.564;2022-12-29T07:53:08;100312.03;;;15.18;66.72
44349;BME280;30068;50.986;4.564;2022-12-29T07:55:33;100320.78;;;15.20;66.58
44349;BME280;30068;50.986;4.564;2022-12-29T07:57:59;100327.84;;;15.21;66.68
44349;BME280;30068;50.986;4.564;2022-12-29T08:00:24;100334.03;;;15.22;66.69
44349;BME280;30068;50.986;4.564;2022-12-29T08:02:50;100326.16;;;15.20;66.80
44349;BME280;30068;50.986;4.564;2022-12-29T08:05:15;100332.38;;;15.21;66.19
44349;BME280;30068;50.986;4.564;2022-12-29T08:07:44;100341.94;;;15.23;66.15
44349;BME280;30068;50.986;4.564;2022-12-29T08:10:11;100328.47;;;15.15;66.45
44349;BME280;30068;50.986;4.564;2022-12-29T08:12:38;100331.16;;;15.15;66.18
44349;BME280;30068;50.986;4.564;2022-12-29T08:15:04;100341.25;;;15.29;65.98
44349;BME280;30068;50.986;4.564;2022-12-29T08:17:30;100327.47;;;15.16;66.15
44349;BME280;30068;50.986;4.564;2022-12-29T08:19:55;100318.56;;;15.16;66.30
44349;BME280;30068;50.986;4.564;2022-12-29T08:22:21;100332.22;;;15.14;66.28
44349;BME280;30068;50.986;4.564;2022-12-29T08:24:46;100345.81;;;15.13;66.24
44349;BME280;30068;50.986;4.564;2022-12-29T08:27:11;100333.38;;;15.12;66.47
44349;BME280;30068;50.986;4.564;2022-12-29T08:29:36;100333.84;;;15.15;66.25
44349;BME280;30068;50.986;4.564;2022-12-29T08:32:02;100334.22;;;15.12;66.02
44349;BME280;30068;50.986;4.564;2022-12-29T08:34:28;100348.97;;;15.16;65.82
44349;BME280;30068;50.986;4.564;2022-12-29T08:36:53;100339.22;;;15.15;65.51
44349;BME280;30068;50.986;4.564;2022-12-29T08:39:18;100342.44;;;15.19;65.83
44349;BME280;30068;50.986;4.564;2022-12-29T08:41:44;100337.59;;;15.14;65.37
44349;BME280;30068;50.986;4.564;2022-12-29T08:44:09;100342.13;;;15.14;65.85
44349;BME280;30068;50.986;4.564;2022-12-29T08:46:34;100364.25;;;15.16;65.61
44349;BME280;30068;50.986;4.564;2022-12-29T08:49:00;100347.66;;;15.12;65.80
44349;BME280;30068;50.986;4.564;2022-12-29T08:51:25;100356.38;;;15.14;65.63
44349;BME280;30068;50.986;4.564;2022-12-29T08:53:51;100370.66;;;15.15;65.49
44349;BME280;30068;50.986;4.564;2022-12-29T08:56:16;100361.06;;;15.04;65.88
44349;BME280;30068;50.986;4.564;2022-12-29T08:58:43;100372.81;;;15.03;65.98
44349;BME280;30068;50.986;4.564;2022-12-29T09:01:09;100358.25;;;15.14;65.36
44349;BME280;30068;50.986;4.564;2022-12-29T09:03:35;100367.44;;;15.35;64.40
44349;BME280;30068;50.986;4.564;2022-12-29T09:06:00;100398.38;;;15.31;64.64
44349;BME280;30068;50.986;4.564;2022-12-29T09:08:25;100379.91;;;15.20;64.77
44349;BME280;30068;50.986;4.564;2022-12-29T09:10:51;100382.41;;;15.30;64.35
44349;BME280;30068;50.986;4.564;2022-12-29T09:13:17;100387.47;;;15.25;65.23
44349;BME280;30068;50.986;4.564;2022-12-29T09:15:42;100399.06;;;15.41;64.30
44349;BME280;30068;50.986;4.564;2022-12-29T09:18:08;100407.78;;;15.43;64.44
44349;BME280;30068;50.986;4.564;2022-12-29T09:20:34;100397.38;;;15.40;64.22
44349;BME280;30068;50.986;4.564;2022-12-29T09:23:00;100408.78;;;15.42;64.56
44349;BME280;30068;50.986;4.564;2022-12-29T09:25:25;100414.53;;;15.48;64.36
44349;BME280;30068;50.986;4.564;2022-12-29T09:27:51;100423.25;;;15.50;64.42
44349;BME280;30068;50.986;4.564;2022-12-29T09:30:21;100430.31;;;15.51;64.01
44349;BME280;30068;50.986;4.564;2022-12-29T09:32:48;100434.69;;;15.52;64.02
44349;BME280;30068;50.986;4.564;2022-12-29T09:35:14;100435.41;;;15.54;64.11
44349;BME280;30068;50.986;4.564;2022-12-29T09:37:40;100451.81;;;15.51;63.68
44349;BME280;30068;50.986;4.564;2022-12-29T09:40:07;100448.66;;;15.63;63.75
44349;BME280;30068;50.986;4.564;2022-12-29T09:42:43;100459.59;;;15.62;63.89
44349;BME280;30068;50.986;4.564;2022-12-29T09:45:22;100470.84;;;15.57;64.04
44349;BME280;30068;50.986;4.564;2022-12-29T09:47:52;100458.91;;;15.60;64.03
44349;BME280;30068;50.986;4.564;2022-12-29T09:50:28;100475.53;;;15.63;63.92
44349;BME280;30068;50.986;4.564;2022-12-29T09:53:05;100465.47;;;15.65;63.39
44349;BME280;30068;50.986;4.564;2022-12-29T09:55:41;100477.56;;;15.69;63.56
44349;BME280;30068;50.986;4.564;2022-12-29T10:00:54;100487.84;;;15.66;63.75
44349;BME280;30068;50.986;4.564;2022-12-29T10:03:24;100467.31;;;15.73;63.45
44349;BME280;30068;50.986;4.564;2022-12-29T10:05:58;100486.66;;;15.85;63.42
44349;BME280;30068;50.986;4.564;2022-12-29T10:11:30;100487.84;;;15.82;63.49
44349;BME280;30068;50.986;4.564;2022-12-29T10:16:44;100495.06;;;15.82;63.59
44349;BME280;30068;50.986;4.564;2022-12-29T10:22:03;100511.03;;;15.83;62.81
44349;BME280;30068;50.986;4.564;2022-12-29T10:24:34;100505.31;;;15.94;62.84
44349;BME280;30068;50.986;4.564;2022-12-29T10:27:03;100505.50;;;15.93;62.54
44349;BME280;30068;50.986;4.564;2022-12-29T10:29:37;100513.41;;;15.94;62.61
44349;BME280;30068;50.986;4.564;2022-12-29T10:32:06;100521.78;;;15.99;62.39
44349;BME280;30068;50.986;4.564;2022-12-29T10:34:41;100520.13;;;15.98;62.56
44349;BME280;30068;50.986;4.564;2022-12-29T10:39:46;100514.56;;;16.08;61.93
44349;BME280;30068;50.986;4.564;2022-12-29T10:44:41;100520.97;;;15.99;62.11
44349;BME280;30068;50.986;4.564;2022-12-29T10:47:12;100526.50;;;16.05;61.69
44349;BME280;30068;50.986;4.564;2022-12-29T10:49:40;100529.53;;;16.10;61.62
44349;BME280;30068;50.986;4.564;2022-12-29T10:52:07;100536.25;;;16.14;61.79
44349;BME280;30068;50.986;4.564;2022-12-29T10:54:41;100531.88;;;16.13;61.51
44349;BME280;30068;50.986;4.564;2022-12-29T10:57:22;100562.34;;;16.14;61.64
44349;BME280;30068;50.986;4.564;2022-12-29T10:59:49;100533.06;;;16.19;61.78
44349;BME280;30068;50.986;4.564;2022-12-29T11:08:02;100552.25;;;16.16;61.21
44349;BME280;30068;50.986;4.564;2022-12-29T11:10:37;100556.44;;;16.18;61.51
44349;BME280;30068;50.986;4.564;2022-12-29T11:13:17;100570.41;;;16.22;61.07
44349;BME280;30068;50.986;4.564;2022-12-29T11:15:44;100559.47;;;16.24;60.98
44349;BME280;30068;50.986;4.564;2022-12-29T11:20:43;100566.19;;;16.28;61.03
44349;BME280;30068;50.986;4.564;2022-12-29T11:23:41;100585.53;;;16.31;61.31
44349;BME280;30068;50.986;4.564;2022-12-29T11:28:36;100572.25;;;16.30;61.16
44349;BME280;30068;50.986;4.564;2022-12-29T11:31:03;100569.72;;;16.28;61.31
44349;BME280;30068;50.986;4.564;2022-12-29T11:33:30;100577.66;;;16.30;61.21
44349;BME280;30068;50.986;4.564;2022-12-29T11:36:02;100593.81;;;16.30;61.28
44349;BME280;30068;50.986;4.564;2022-12-29T11:38:35;100591.44;;;16.35;61.15
44349;BME280;30068;50.986;4.564;2022-12-29T11:41:02;100585.53;;;16.39;61.42
44349;BME280;30068;50.986;4.564;2022-12-29T11:43:38;100589.91;;;16.40;61.55
44349;BME280;30068;50.986;4.564;2022-12-29T11:46:05;100605.91;;;16.34;61.79
44349;BME280;30068;50.986;4.564;2022-12-29T11:48:39;100607.75;;;16.33;62.01
44349;BME280;30068;50.986;4.564;2022-12-29T11:51:06;100615.50;;;16.36;62.32
44349;BME280;30068;50.986;4.564;2022-12-29T11:53:43;100620.06;;;16.36;62.17
44349;BME280;30068;50.986;4.564;2022-12-29T11:56:13;100614.16;;;16.32;62.43
44349;BME280;30068;50.986;4.564;2022-12-29T11:58:39;100625.25;;;16.45;62.21
44349;BME280;30068;50.986;4.564;2022-12-29T12:03:45;100625.75;;;16.65;61.72
44349;BME280;30068;50.986;4.564;2022-12-29T12:06:16;100622.06;;;16.66;61.86
44349;BME280;30068;50.986;4.564;2022-12-29T12:08:55;100614.34;;;16.63;62.10
44349;BME280;30068;50.986;4.564;2022-12-29T12:11:28;100620.72;;;16.62;62.22
44349;BME280;30068;50.986;4.564;2022-12-29T12:16:57;100622.41;;;16.63;62.13
44349;BME280;30068;50.986;4.564;2022-12-29T12:19:40;100627.81;;;16.71;61.64
44349;BME280;30068;50.986;4.564;2022-12-29T12:22:21;100616.50;;;16.76;62.07
44349;BME280;30068;50.986;4.564;2022-12-29T12:24:55;100623.56;;;16.77;61.53
44349;BME280;30068;50.986;4.564;2022-12-29T12:27:25;100627.13;;;16.77;61.90
44349;BME280;30068;50.986;4.564;2022-12-29T12:32:23;100635.03;;;16.71;62.15
44349;BME280;30068;50.986;4.564;2022-12-29T12:34:51;100637.22;;;16.67;62.23
44349;BME280;30068;50.986;4.564;2022-12-29T12:38:14;100638.75;;;16.62;62.42
44349;BME280;30068;50.986;4.564;2022-12-29T12:40:19;100638.91;;;16.60;62.57
44349;BME280;30068;50.986;4.564;2022-12-29T12:59:15;100622.41;;;16.71;62.22
44349;BME280;30068;50.986;4.564;2022-12-29T13:02:15;100621.72;;;16.69;62.21
44349;BME280;30068;50.986;4.564;2022-12-29T13:05:16;100627.59;;;16.73;62.31
44349;BME280;30068;50.986;4.564;2022-12-29T13:19:02;100636.53;;;16.81;61.74
44349;BME280;30068;50.986;4.564;2022-12-29T13:21:52;100641.44;;;16.78;61.42
44349;BME280;30068;50.986;4.564;2022-12-29T13:37:57;100646.31;;;16.74;62.04
44349;BME280;30068;50.986;4.564;2022-12-29T13:40:25;100653.06;;;16.78;61.73
44349;BME280;30068;50.986;4.564;2022-12-29T13:42:55;100654.75;;;16.71;61.49
44349;BME280;30068;50.986;4.564;2022-12-29T13:45:22;100653.22;;;16.69;61.38
44349;BME280;30068;50.986;4.564;2022-12-29T13:48:06;100650.53;;;16.61;61.85
44349;BME280;30068;50.986;4.564;2022-12-29T13:50:36;100648.81;;;16.59;62.02
44349;BME280;30068;50.986;4.564;2022-12-29T13:53:19;100663.28;;;16.58;61.77
44349;BME280;30068;50.986;4.564;2022-12-29T13:55:54;100656.56;;;16.54;61.56
44349;BME280;30068;50.986;4.564;2022-12-29T13:58:31;100656.25;;;16.57;61.72
44349;BME280;30068;50.986;4.564;2022-12-29T14:02:01;100655.22;;;16.50;61.54
44349;BME280;30068;50.986;4.564;2022-12-29T14:03:56;100643.94;;;16.47;61.16
44349;BME280;30068;50.986;4.564;2022-12-29T14:06:26;100651.00;;;16.48;61.33
44349;BME280;30068;50.986;4.564;2022-12-29T14:09:04;100655.91;;;16.44;61.71
44349;BME280;30068;50.986;4.564;2022-12-29T14:11:32;100650.16;;;16.47;61.13
44349;BME280;30068;50.986;4.564;2022-12-29T14:13:59;100653.03;;;16.46;61.48
44349;BME280;30068;50.986;4.564;2022-12-29T14:16:35;100657.06;;;16.42;61.58
44349;BME280;30068;50.986;4.564;2022-12-29T14:19:14;100652.84;;;16.39;61.33
44349;BME280;30068;50.986;4.564;2022-12-29T14:21:41;100662.47;;;16.42;61.53
44349;BME280;30068;50.986;4.564;2022-12-29T14:24:28;100659.59;;;16.35;61.87
44349;BME280;30068;50.986;4.564;2022-12-29T14:34:46;100705.69;;;16.32;62.17
44349;BME280;30068;50.986;4.564;2022-12-29T14:37:26;100720.34;;;16.38;62.14
44349;BME280;30068;50.986;4.564;2022-12-29T14:42:48;100727.06;;;16.26;62.91
44349;BME280;30068;50.986;4.564;2022-12-29T14:47:41;100725.38;;;16.25;62.83
44349;BME280;30068;50.986;4.564;2022-12-29T14:50:18;100719.13;;;16.24;62.64
44349;BME280;30068;50.986;4.564;2022-12-29T14:52:53;100722.69;;;16.16;63.26
44349;BME280;30068;50.986;4.564;2022-12-29T14:55:43;100724.34;;;16.17;63.09
44349;BME280;30068;50.986;4.564;2022-12-29T14:58:19;100711.91;;;16.16;63.23
44349;BME280;30068;50.986;4.564;2022-12-29T15:00:46;100721.31;;;16.12;63.57
44349;BME280;30068;50.986;4.564;2022-12-29T15:03:18;100723.31;;;16.10;63.51